createdAt,value
2023-06-27T00:01:51.132Z,3.72
2023-06-27T00:04:40.940Z,3.10
2023-06-27T00:07:30.488Z,3.33
2023-06-27T00:10:20.299Z,3.60
2023-06-27T00:13:17.398Z,3.60
2023-06-27T00:16:08.095Z,3.22
2023-06-27T00:18:57.685Z,3.25
2023-06-27T00:21:46.954Z,3.20
2023-06-27T00:24:36.230Z,3.35
2023-06-27T00:27:25.746Z,3.05
2023-06-27T00:30:16.798Z,3.35
2023-06-27T00:33:06.307Z,3.22
2023-06-27T00:35:55.654Z,3.08
2023-06-27T00:38:44.958Z,3.05
2023-06-27T00:41:36.197Z,3.22
2023-06-27T00:44:25.603Z,2.83
2023-06-27T00:47:16.481Z,3.10
2023-06-27T00:50:07.167Z,3.10
2023-06-27T00:52:58.217Z,3.00
2023-06-27T00:55:47.568Z,3.05
2023-06-27T00:58:36.899Z,2.85
2023-06-27T01:01:26.624Z,3.22
2023-06-27T01:04:17.316Z,2.88
2023-06-27T01:07:16.895Z,2.92
2023-06-27T01:10:15.215Z,3.08
2023-06-27T01:13:10.980Z,3.03
2023-06-27T01:16:01.499Z,3.20
2023-06-27T01:18:51.148Z,2.75
2023-06-27T01:21:45.130Z,2.70
2023-06-27T01:24:38.041Z,3.00
2023-06-27T01:27:28.553Z,3.00
2023-06-27T01:30:19.087Z,3.30
2023-06-27T01:33:13.897Z,3.30
2023-06-27T01:36:12.051Z,2.90
2023-06-27T01:39:07.177Z,3.30
2023-06-27T01:42:06.652Z,3.20
2023-06-27T01:44:56.937Z,3.10
2023-06-27T01:47:46.938Z,2.90
2023-06-27T01:50:36.664Z,3.00
2023-06-27T01:53:27.865Z,3.10
2023-06-27T01:56:17.236Z,3.25
2023-06-27T01:59:10.491Z,3.45
2023-06-27T02:01:59.902Z,3.35
2023-06-27T02:04:50.649Z,3.00
2023-06-27T02:07:40.042Z,3.22
2023-06-27T02:10:32.733Z,3.33
2023-06-27T02:13:23.703Z,3.38
2023-06-27T02:16:14.718Z,3.40
2023-06-27T02:19:05.755Z,3.40
2023-06-27T02:21:55.179Z,3.72
2023-06-27T02:24:44.444Z,3.75
2023-06-27T02:27:33.935Z,3.38
2023-06-27T02:30:23.392Z,3.70
2023-06-27T02:33:14.065Z,3.70
2023-06-27T02:36:03.351Z,3.90
2023-06-27T02:38:56.086Z,3.60
2023-06-27T02:41:45.535Z,3.92
2023-06-27T02:44:34.808Z,4.00
2023-06-27T02:47:25.238Z,3.65
2023-06-27T02:50:16.175Z,3.83
2023-06-27T02:53:06.100Z,4.20
2023-06-27T02:55:55.691Z,4.13
2023-06-27T02:58:45.116Z,4.18
2023-06-27T03:01:34.935Z,4.15
2023-06-27T03:04:25.553Z,3.97
2023-06-27T03:07:17.697Z,4.38
2023-06-27T03:10:08.561Z,4.20
2023-06-27T03:12:57.900Z,4.13
2023-06-27T03:15:47.258Z,4.40
2023-06-27T03:18:36.547Z,4.00
2023-06-27T03:21:25.899Z,3.67
2023-06-27T03:24:17.599Z,4.57
2023-06-27T03:27:11.776Z,4.25
2023-06-27T03:30:03.742Z,4.60
2023-06-27T03:32:54.184Z,3.97
2023-06-27T03:35:44.600Z,4.15
2023-06-27T03:38:34.348Z,4.40
2023-06-27T03:41:25.277Z,4.43
2023-06-27T03:44:14.610Z,4.18
2023-06-27T03:47:06.427Z,4.20
2023-06-27T03:49:55.826Z,4.30
2023-06-27T03:52:45.459Z,3.78
2023-06-27T03:55:35.349Z,4.10
2023-06-27T03:58:26.400Z,4.18
2023-06-27T04:01:15.829Z,4.07
2023-06-27T04:04:05.411Z,3.90
2023-06-27T04:06:55.976Z,4.28
2023-06-27T04:09:45.359Z,4.63
2023-06-27T04:12:34.736Z,4.50
2023-06-27T04:15:26.128Z,4.90
2023-06-27T04:18:15.524Z,4.47
2023-06-27T04:21:05.045Z,4.57
2023-06-27T04:23:55.619Z,5.57
2023-06-27T04:26:45.010Z,4.85
2023-06-27T04:29:34.261Z,5.07
2023-06-27T04:32:25.222Z,4.43
2023-06-27T04:35:17.323Z,5.20
2023-06-27T04:38:08.136Z,4.85
2023-06-27T04:40:57.603Z,4.93
2023-06-27T04:43:47.128Z,4.40
2023-06-27T04:46:36.468Z,4.63
2023-06-27T04:49:27.114Z,4.43
2023-06-27T04:52:16.323Z,4.53
2023-06-27T04:55:06.386Z,4.80
2023-06-27T04:57:55.817Z,5.28
2023-06-27T05:00:45.715Z,5.68
2023-06-27T05:03:35.871Z,4.65
2023-06-27T05:06:27.951Z,5.10
2023-06-27T05:09:17.217Z,4.78
2023-06-27T05:12:07.718Z,5.53
2023-06-27T05:14:57.011Z,5.20
2023-06-27T05:17:54.805Z,4.40
2023-06-27T05:20:44.622Z,3.85
2023-06-27T05:23:35.388Z,4.50
2023-06-27T05:26:24.656Z,4.28
2023-06-27T05:29:13.910Z,3.92
2023-06-27T05:32:03.232Z,4.45
2023-06-27T05:34:52.603Z,4.18
2023-06-27T05:37:41.972Z,4.40
2023-06-27T05:40:32.652Z,4.03
2023-06-27T05:43:21.958Z,3.80
2023-06-27T05:46:11.278Z,4.25
2023-06-27T05:49:00.576Z,4.57
2023-06-27T05:51:49.844Z,5.10
2023-06-27T05:54:39.185Z,4.32
2023-06-27T05:57:29.911Z,4.45
2023-06-27T06:00:22.193Z,4.35
2023-06-27T06:03:11.641Z,4.93
2023-06-27T06:06:01.138Z,5.15
2023-06-27T06:08:50.523Z,4.72
2023-06-27T06:11:39.802Z,5.65
2023-06-27T06:14:30.742Z,5.55
2023-06-27T06:17:20.148Z,5.35
2023-06-27T06:20:12.155Z,5.70
2023-06-27T06:23:01.515Z,5.60
2023-06-27T06:25:51.219Z,5.15
2023-06-27T06:28:40.614Z,5.68
2023-06-27T06:31:31.509Z,5.45
2023-06-27T06:34:20.861Z,5.65
2023-06-27T06:37:10.298Z,5.07
2023-06-27T06:39:59.629Z,6.07
2023-06-27T06:42:49.098Z,5.72
2023-06-27T06:45:38.460Z,5.20
2023-06-27T06:48:29.432Z,6.40
2023-06-27T06:51:18.828Z,6.57
2023-06-27T06:54:08.115Z,7.20
2023-06-27T06:56:57.397Z,6.60
2023-06-27T06:59:47.601Z,6.63
2023-06-27T07:02:37.188Z,7.13
2023-06-27T07:05:27.911Z,7.38
2023-06-27T07:08:17.316Z,7.68
2023-06-27T07:11:06.651Z,7.47
2023-06-27T07:13:56.034Z,8.73
2023-06-27T07:16:45.394Z,8.18
2023-06-27T07:19:34.690Z,8.30
2023-06-27T07:22:25.404Z,8.65
2023-06-27T07:25:14.818Z,8.05
2023-06-27T07:28:04.557Z,8.68
2023-06-27T07:30:53.980Z,8.98
2023-06-27T07:33:43.441Z,10.00
2023-06-27T07:36:32.832Z,8.98
2023-06-27T07:39:23.892Z,9.10
2023-06-27T07:42:13.713Z,9.80
2023-06-27T07:45:03.028Z,10.60
2023-06-27T07:47:53.026Z,10.48
2023-06-27T07:50:42.689Z,11.70
2023-06-27T07:53:32.240Z,11.00
2023-06-27T07:56:23.138Z,11.43
2023-06-27T07:59:14.652Z,11.35
2023-06-27T08:02:05.471Z,11.10
2023-06-27T08:04:54.871Z,10.77
2023-06-27T08:07:44.194Z,11.30
2023-06-27T08:10:33.466Z,11.93
2023-06-27T08:13:25.572Z,12.55
2023-06-27T08:16:15.017Z,13.25
2023-06-27T08:19:04.488Z,12.80
2023-06-27T08:21:53.802Z,13.35
2023-06-27T08:24:43.109Z,11.85
2023-06-27T08:27:32.796Z,12.45
2023-06-27T08:30:23.707Z,12.93
2023-06-27T08:33:13.125Z,12.60
2023-06-27T08:36:02.719Z,12.80
2023-06-27T08:38:52.052Z,12.75
2023-06-27T08:41:41.455Z,13.20
2023-06-27T08:44:30.917Z,13.45
2023-06-27T08:47:24.534Z,13.80
2023-06-27T08:50:16.231Z,14.35
2023-06-27T08:53:09.789Z,14.82
2023-06-27T08:56:04.394Z,14.02
2023-06-27T08:59:01.465Z,14.18
2023-06-27T09:01:52.212Z,14.13
2023-06-27T09:04:44.140Z,14.75
2023-06-27T09:07:34.581Z,12.90
2023-06-27T09:10:24.463Z,12.25
2023-06-27T09:13:14.971Z,13.80
2023-06-27T09:16:04.346Z,13.07
2023-06-27T09:18:55.934Z,14.32
2023-06-27T09:21:50.900Z,12.97
2023-06-27T09:24:43.361Z,13.45
2023-06-27T09:27:35.454Z,13.48
2023-06-27T09:30:25.839Z,12.95
2023-06-27T09:33:21.475Z,13.30
2023-06-27T09:36:10.959Z,13.80
2023-06-27T09:39:05.099Z,13.48
2023-06-27T09:41:54.697Z,14.30
2023-06-27T09:44:44.264Z,14.90
2023-06-27T09:47:33.927Z,16.98
2023-06-27T09:50:27.755Z,14.50
2023-06-27T09:53:17.180Z,15.85
2023-06-27T09:56:08.075Z,16.30
2023-06-27T09:59:00.180Z,17.48
2023-06-27T10:01:55.173Z,16.63
2023-06-27T10:04:44.869Z,16.92
2023-06-27T10:07:34.650Z,15.73
2023-06-27T10:10:28.351Z,16.83
2023-06-27T10:13:19.505Z,18.85
2023-06-27T10:16:10.143Z,17.73
2023-06-27T10:18:59.711Z,16.67
2023-06-27T10:21:49.722Z,17.65
2023-06-27T10:24:43.086Z,18.75
2023-06-27T10:27:36.967Z,18.88
2023-06-27T10:30:28.246Z,17.48
2023-06-27T10:33:29.370Z,17.75
2023-06-27T10:36:19.086Z,17.35
2023-06-27T10:39:30.655Z,19.15
2023-06-27T10:42:31.023Z,17.67
2023-06-27T10:45:20.398Z,17.75
2023-06-27T10:48:11.186Z,16.90
2023-06-27T10:51:07.957Z,18.85
2023-06-27T10:54:18.940Z,18.88
2023-06-27T10:57:08.343Z,18.42
2023-06-27T11:00:14.999Z,18.13
2023-06-27T11:03:07.933Z,17.15
2023-06-27T11:06:02.330Z,17.33
2023-06-27T11:08:58.055Z,18.15
2023-06-27T11:11:58.171Z,17.85
2023-06-27T11:14:49.335Z,17.00
2023-06-27T11:17:42.077Z,16.73
2023-06-27T11:20:31.854Z,16.08
2023-06-27T11:23:23.690Z,17.50
2023-06-27T11:26:13.040Z,18.58
2023-06-27T11:29:05.380Z,17.42
2023-06-27T11:31:56.564Z,18.98
2023-06-27T11:34:45.957Z,19.60
2023-06-27T11:37:35.409Z,18.25
2023-06-27T11:40:27.045Z,15.18
2023-06-27T11:43:16.821Z,17.55
2023-06-27T11:46:06.123Z,15.48
2023-06-27T11:48:55.518Z,17.08
2023-06-27T11:51:45.279Z,16.13
2023-06-27T11:54:35.556Z,16.35
2023-06-27T11:57:26.451Z,17.25
2023-06-27T12:00:20.806Z,17.17
2023-06-27T12:03:11.641Z,17.55
2023-06-27T12:06:01.208Z,15.82
2023-06-27T12:08:50.644Z,18.15
2023-06-27T12:11:40.073Z,17.85
2023-06-27T12:14:31.091Z,17.45
2023-06-27T12:17:23.857Z,14.27
2023-06-27T12:20:13.881Z,14.52
2023-06-27T12:23:03.293Z,14.60
2023-06-27T12:25:52.816Z,11.88
2023-06-27T12:28:57.710Z,11.80
2023-06-27T12:31:48.456Z,12.90
2023-06-27T12:34:37.824Z,12.40
2023-06-27T12:37:28.643Z,12.88
2023-06-27T12:40:19.310Z,11.30
2023-06-27T12:43:09.053Z,12.70
2023-06-27T12:46:02.952Z,13.02
2023-06-27T12:48:53.957Z,13.77
2023-06-27T12:51:43.298Z,12.90
2023-06-27T12:54:32.606Z,14.20
2023-06-27T12:57:21.948Z,13.27
2023-06-27T13:00:13.377Z,13.63
2023-06-27T13:03:15.848Z,12.27
2023-06-27T13:06:08.365Z,12.35
2023-06-27T13:08:57.754Z,12.40
2023-06-27T13:11:47.072Z,11.50
2023-06-27T13:14:36.373Z,11.48
2023-06-27T13:17:25.926Z,11.35
2023-06-27T13:20:15.992Z,10.98
2023-06-27T13:23:07.610Z,11.38
2023-06-27T13:25:57.098Z,10.20
2023-06-27T13:28:46.486Z,10.43
2023-06-27T13:31:36.123Z,11.00
2023-06-27T13:34:25.641Z,10.15
2023-06-27T13:37:15.040Z,10.52
2023-06-27T13:40:07.313Z,9.95
2023-06-27T13:42:56.615Z,9.20
2023-06-27T13:45:48.188Z,8.70
2023-06-27T13:48:37.741Z,9.18
2023-06-27T13:51:26.992Z,8.25
2023-06-27T13:54:16.229Z,7.07
2023-06-27T13:57:07.199Z,7.15
2023-06-27T13:59:56.562Z,7.25
2023-06-27T14:02:45.932Z,7.13
2023-06-27T14:05:55.442Z,6.97
2023-06-27T14:08:45.021Z,6.57
2023-06-27T14:11:34.284Z,6.90
2023-06-27T14:14:25.743Z,7.88
2023-06-27T14:17:15.075Z,8.07
2023-06-27T14:20:04.881Z,8.63
2023-06-27T14:22:55.170Z,8.88
2023-06-27T14:25:44.636Z,7.65
2023-06-27T14:28:34.318Z,9.13
2023-06-27T14:31:26.157Z,7.75
2023-06-27T14:34:15.609Z,8.63
2023-06-27T14:37:05.293Z,9.13
2023-06-27T14:39:56.294Z,8.32
2023-06-27T14:42:45.694Z,8.13
2023-06-27T14:45:35.091Z,8.60
2023-06-27T14:48:25.802Z,7.78
2023-06-27T14:51:15.108Z,8.38
2023-06-27T14:54:04.554Z,9.02
2023-06-27T14:56:53.904Z,8.75
2023-06-27T14:59:43.248Z,8.77
2023-06-27T15:02:32.608Z,8.98
2023-06-27T15:05:29.291Z,8.60
2023-06-27T15:08:18.745Z,9.10
2023-06-27T15:11:08.158Z,9.25
2023-06-27T15:14:00.235Z,9.23
2023-06-27T15:16:49.613Z,8.50
2023-06-27T15:19:38.941Z,8.13
2023-06-27T15:22:29.779Z,8.60
2023-06-27T15:25:19.115Z,8.65
2023-06-27T15:28:08.488Z,8.77
2023-06-27T15:30:57.875Z,8.93
2023-06-27T15:33:47.606Z,8.27
2023-06-27T15:36:37.643Z,8.55
2023-06-27T15:39:29.097Z,8.10
2023-06-27T15:42:18.470Z,7.97
2023-06-27T15:45:10.142Z,7.90
2023-06-27T15:48:00.267Z,9.05
2023-06-27T15:50:49.830Z,8.02
2023-06-27T15:53:39.155Z,8.63
2023-06-27T15:56:29.919Z,8.07
2023-06-27T15:59:19.320Z,7.88
2023-06-27T16:02:08.858Z,8.32
2023-06-27T16:04:58.518Z,7.80
2023-06-27T16:07:48.268Z,7.20
2023-06-27T16:10:37.694Z,7.88
2023-06-27T16:13:28.532Z,8.52
2023-06-27T16:16:18.164Z,7.90
2023-06-27T16:19:08.284Z,7.85
2023-06-27T16:21:57.583Z,7.90
2023-06-27T16:24:46.983Z,7.07
2023-06-27T16:27:36.354Z,7.35
2023-06-27T16:30:27.152Z,7.65
2023-06-27T16:33:16.584Z,8.40
2023-06-27T16:36:06.391Z,8.18
2023-06-27T16:38:55.665Z,8.98
2023-06-27T16:41:44.980Z,9.38
2023-06-27T16:44:34.403Z,9.52
2023-06-27T16:47:25.943Z,11.43
2023-06-27T16:50:15.476Z,11.45
2023-06-27T16:53:04.856Z,11.40
2023-06-27T16:55:54.215Z,10.82
2023-06-27T16:58:43.568Z,10.77
2023-06-27T17:01:33.381Z,10.63
2023-06-27T17:04:24.212Z,10.27
2023-06-27T17:07:13.568Z,10.43
2023-06-27T17:10:03.001Z,10.75
2023-06-27T17:12:52.567Z,10.88
2023-06-27T17:15:43.730Z,10.15
2023-06-27T17:18:33.244Z,10.60
2023-06-27T17:21:24.065Z,10.38
2023-06-27T17:24:13.405Z,10.48
2023-06-27T17:27:05.910Z,10.65
2023-06-27T17:29:55.295Z,11.02
2023-06-27T17:32:47.130Z,11.13
2023-06-27T17:35:36.660Z,11.52
2023-06-27T17:38:27.656Z,10.55
2023-06-27T17:41:16.971Z,10.75
2023-06-27T17:44:06.597Z,10.68
2023-06-27T17:46:56.125Z,11.50
2023-06-27T17:49:45.561Z,11.25
2023-06-27T17:52:35.009Z,10.45
2023-06-27T17:55:25.943Z,10.75
2023-06-27T17:58:15.360Z,11.65
2023-06-27T18:01:06.148Z,11.82
2023-06-27T18:03:55.565Z,10.35
2023-06-27T18:06:45.086Z,10.73
2023-06-27T18:09:34.552Z,11.65
2023-06-27T18:12:30.907Z,10.52
2023-06-27T18:15:20.222Z,10.43
2023-06-27T18:18:10.997Z,10.77
2023-06-27T18:21:00.372Z,8.50
2023-06-27T18:23:49.669Z,8.48
2023-06-27T18:26:39.008Z,6.38
2023-06-27T18:29:29.759Z,5.88
2023-06-27T18:32:19.403Z,5.72
2023-06-27T18:35:09.728Z,4.35
2023-06-27T18:37:59.712Z,4.13
2023-06-27T18:40:49.197Z,4.05
2023-06-27T18:43:38.716Z,4.80
2023-06-27T18:46:31.059Z,5.35
2023-06-27T18:49:20.483Z,5.80
2023-06-27T18:52:10.608Z,5.75
2023-06-27T18:55:00.465Z,4.93
2023-06-27T18:57:50.438Z,4.35
2023-06-27T19:00:41.352Z,4.82
2023-06-27T19:03:32.958Z,4.57
2023-06-27T19:06:31.161Z,5.25
2023-06-27T19:09:21.634Z,3.70
2023-06-27T19:12:11.876Z,3.75
2023-06-27T19:15:01.314Z,3.83
2023-06-27T19:17:52.153Z,3.60
2023-06-27T19:20:43.636Z,3.15
2023-06-27T19:23:33.928Z,2.97
2023-06-27T19:26:23.493Z,2.28
2023-06-27T19:29:13.495Z,2.40
2023-06-27T19:32:02.860Z,2.47
2023-06-27T19:34:52.208Z,2.95
2023-06-27T19:37:42.975Z,2.70
2023-06-27T19:40:32.314Z,2.67
2023-06-27T19:43:21.706Z,2.30
2023-06-27T19:46:11.047Z,2.70
2023-06-27T19:49:00.438Z,2.70
2023-06-27T19:51:49.720Z,2.33
2023-06-27T19:54:40.468Z,2.45
2023-06-27T19:57:29.845Z,2.67
2023-06-27T20:00:20.297Z,2.22
2023-06-27T20:03:09.747Z,2.83
2023-06-27T20:05:59.221Z,2.63
2023-06-27T20:08:49.377Z,2.63
2023-06-27T20:11:40.040Z,2.67
2023-06-27T20:14:29.327Z,2.70
2023-06-27T20:17:18.932Z,2.60
2023-06-27T20:20:10.256Z,2.60
2023-06-27T20:22:59.835Z,2.58
2023-06-27T20:25:49.488Z,2.97
2023-06-27T20:28:40.297Z,2.90
2023-06-27T20:31:29.783Z,2.47
2023-06-27T20:34:21.964Z,2.47
2023-06-27T20:37:11.403Z,4.97
2023-06-27T20:40:00.888Z,2.58
2023-06-27T20:42:50.209Z,2.80
2023-06-27T20:45:42.051Z,3.03
2023-06-27T20:48:31.544Z,2.20
2023-06-27T20:51:21.540Z,2.78
2023-06-27T20:54:10.853Z,2.72
2023-06-27T20:57:00.238Z,2.50
2023-06-27T20:59:49.545Z,2.40
2023-06-27T21:02:40.531Z,3.20
2023-06-27T21:05:29.922Z,2.55
2023-06-27T21:08:19.528Z,2.03
2023-06-27T21:11:08.831Z,2.88
2023-06-27T21:13:58.279Z,2.95
2023-06-27T21:16:47.655Z,2.63
2023-06-27T21:19:38.854Z,2.83
2023-06-27T21:22:28.189Z,2.17
2023-06-27T21:25:18.250Z,1.90
2023-06-27T21:28:07.675Z,2.20
2023-06-27T21:30:57.053Z,2.03
2023-06-27T21:33:47.516Z,2.47
2023-06-27T21:36:38.315Z,2.40
2023-06-27T21:39:27.683Z,2.30
2023-06-27T21:42:17.171Z,2.08
2023-06-27T21:45:07.773Z,2.60
2023-06-27T21:47:57.171Z,3.33
2023-06-27T21:50:46.931Z,2.92
2023-06-27T21:53:39.536Z,2.85
2023-06-27T21:56:28.844Z,4.40
2023-06-27T21:59:18.403Z,3.05
2023-06-27T22:02:08.200Z,1.55
2023-06-27T22:04:57.566Z,2.60
2023-06-27T22:07:50.521Z,1.88
2023-06-27T22:10:42.077Z,2.00
2023-06-27T22:13:32.006Z,1.80
2023-06-27T22:16:22.606Z,1.50
2023-06-27T22:19:12.415Z,1.58
2023-06-27T22:22:01.983Z,1.60
2023-06-27T22:24:54.320Z,1.40
2023-06-27T22:27:45.458Z,1.58
2023-06-27T22:30:35.095Z,1.50
2023-06-27T22:33:24.493Z,1.40
2023-06-27T22:36:13.837Z,1.10
2023-06-27T22:39:03.279Z,1.02
2023-06-27T22:41:52.523Z,0.85
2023-06-27T22:44:43.285Z,0.90
2023-06-27T22:47:33.267Z,1.10
2023-06-27T22:50:22.723Z,1.20
2023-06-27T22:53:12.703Z,1.38
2023-06-27T22:56:02.027Z,1.00
2023-06-27T22:58:51.532Z,1.10
2023-06-27T23:01:42.221Z,1.13
2023-06-27T23:04:31.722Z,2.85
2023-06-27T23:07:21.110Z,1.50
2023-06-27T23:10:11.210Z,1.35
2023-06-27T23:13:00.654Z,1.00
2023-06-27T23:15:50.080Z,1.00
2023-06-27T23:18:42.091Z,1.20
2023-06-27T23:21:34.232Z,1.07
2023-06-27T23:24:28.296Z,1.33
2023-06-27T23:27:17.721Z,1.10
2023-06-27T23:30:09.666Z,1.27
2023-06-27T23:32:59.039Z,1.30
2023-06-27T23:35:50.437Z,1.50
2023-06-27T23:38:39.834Z,1.05
2023-06-27T23:41:29.283Z,1.50
2023-06-27T23:44:18.556Z,1.27
2023-06-27T23:47:08.680Z,1.00
2023-06-27T23:49:58.082Z,0.85
2023-06-27T23:52:48.972Z,1.15
2023-06-27T23:55:38.528Z,1.13
2023-06-27T23:58:27.575Z,1.08
